createdAt,value
2023-02-17T00:01:00.182Z,2.95
2023-02-17T00:03:27.168Z,2.50
2023-02-17T00:05:54.440Z,2.90
2023-02-17T00:08:21.354Z,3.35
2023-02-17T00:10:57.099Z,4.05
2023-02-17T00:13:24.399Z,2.90
2023-02-17T00:15:51.496Z,2.90
2023-02-17T00:18:18.530Z,3.42
2023-02-17T00:20:45.526Z,3.25
2023-02-17T00:23:12.489Z,3.05
2023-02-17T00:25:39.829Z,2.80
2023-02-17T00:28:06.811Z,3.78
2023-02-17T00:30:33.814Z,3.10
2023-02-17T00:33:01.207Z,3.30
2023-02-17T00:35:28.221Z,3.25
2023-02-17T00:37:55.136Z,2.72
2023-02-17T00:40:22.147Z,2.95
2023-02-17T00:42:49.158Z,3.22
2023-02-17T00:45:16.456Z,2.83
2023-02-17T00:47:43.340Z,3.42
2023-02-17T00:50:10.433Z,2.60
2023-02-17T00:52:37.497Z,3.10
2023-02-17T00:55:04.986Z,2.38
2023-02-17T00:57:32.502Z,2.25
2023-02-17T00:59:59.735Z,2.88
2023-02-17T01:02:26.813Z,2.40
2023-02-17T01:04:54.337Z,2.40
2023-02-17T01:07:21.411Z,2.40
2023-02-17T01:09:48.384Z,2.10
2023-02-17T01:12:16.078Z,2.50
2023-02-17T01:14:43.046Z,1.90
2023-02-17T01:17:10.085Z,1.85
2023-02-17T01:19:37.108Z,2.30
2023-02-17T01:22:04.104Z,2.28
2023-02-17T01:24:31.073Z,2.03
2023-02-17T01:26:58.186Z,2.13
2023-02-17T01:29:27.755Z,2.10
2023-02-17T01:31:54.728Z,1.80
2023-02-17T01:34:21.697Z,2.28
2023-02-17T01:36:48.638Z,1.92
2023-02-17T01:39:16.625Z,1.73
2023-02-17T01:41:46.673Z,1.48
2023-02-17T01:44:20.626Z,2.00
2023-02-17T01:46:50.141Z,1.80
2023-02-17T01:49:37.919Z,1.70
2023-02-17T01:52:14.096Z,1.90
2023-02-17T01:54:47.828Z,1.85
2023-02-17T01:57:19.525Z,1.98
2023-02-17T01:59:47.392Z,1.75
2023-02-17T02:02:15.495Z,2.58
2023-02-17T02:04:46.852Z,1.73
2023-02-17T02:07:18.556Z,1.40
2023-02-17T02:09:53.787Z,1.90
2023-02-17T02:12:27.204Z,2.13
2023-02-17T02:14:58.548Z,2.95
2023-02-17T02:17:31.021Z,1.92
2023-02-17T02:20:10.814Z,1.80
2023-02-17T02:22:59.497Z,2.75
2023-02-17T02:25:54.561Z,2.28
2023-02-17T02:28:56.701Z,1.95
2023-02-17T02:31:26.665Z,1.88
2023-02-17T02:34:42.972Z,1.80
2023-02-17T02:37:24.955Z,1.88
2023-02-17T02:39:54.842Z,2.08
2023-02-17T02:42:24.617Z,2.70
2023-02-17T02:44:51.705Z,1.90
2023-02-17T02:47:47.534Z,2.97
2023-02-17T02:50:44.029Z,1.70
2023-02-17T02:53:38.353Z,1.73
2023-02-17T02:56:20.002Z,3.35
2023-02-17T02:59:05.733Z,2.10
2023-02-17T03:01:52.230Z,2.88
2023-02-17T03:04:36.236Z,2.30
2023-02-17T03:07:07.779Z,1.60
2023-02-17T03:09:35.242Z,1.80
2023-02-17T03:12:02.674Z,2.22
2023-02-17T03:14:36.446Z,1.70
2023-02-17T03:17:04.063Z,3.05
2023-02-17T03:19:31.090Z,1.63
2023-02-17T03:22:07.391Z,2.00
2023-02-17T03:24:36.148Z,1.73
2023-02-17T03:27:05.972Z,2.15
2023-02-17T03:29:33.684Z,2.20
2023-02-17T03:32:01.200Z,1.90
2023-02-17T03:34:28.261Z,2.72
2023-02-17T03:36:55.222Z,2.17
2023-02-17T03:39:22.228Z,1.92
2023-02-17T03:41:51.668Z,1.90
2023-02-17T03:44:19.348Z,1.77
2023-02-17T03:46:47.230Z,1.95
2023-02-17T03:49:14.726Z,1.60
2023-02-17T03:51:41.719Z,1.92
2023-02-17T03:54:09.597Z,1.58
2023-02-17T03:56:36.954Z,2.85
2023-02-17T03:59:04.360Z,2.33
2023-02-17T04:01:31.454Z,1.95
2023-02-17T04:03:58.488Z,2.30
2023-02-17T04:06:25.504Z,2.38
2023-02-17T04:08:52.517Z,1.63
2023-02-17T04:11:19.433Z,2.00
2023-02-17T04:13:46.375Z,2.40
2023-02-17T04:16:13.428Z,1.33
2023-02-17T04:18:40.483Z,1.55
2023-02-17T04:21:07.922Z,2.15
2023-02-17T04:23:38.553Z,1.85
2023-02-17T04:26:06.917Z,1.50
2023-02-17T04:28:35.260Z,1.50
2023-02-17T04:31:02.327Z,1.52
2023-02-17T04:33:29.728Z,2.00
2023-02-17T04:35:59.728Z,1.80
2023-02-17T04:38:28.751Z,2.58
2023-02-17T04:40:56.909Z,1.67
2023-02-17T04:43:25.261Z,1.88
2023-02-17T04:45:53.274Z,2.92
2023-02-17T04:48:21.124Z,1.50
2023-02-17T04:50:48.291Z,1.52
2023-02-17T04:53:15.368Z,1.60
2023-02-17T04:55:42.792Z,2.63
2023-02-17T04:58:09.858Z,2.28
2023-02-17T05:00:37.356Z,1.40
2023-02-17T05:03:04.635Z,3.08
2023-02-17T05:05:31.679Z,1.77
2023-02-17T05:07:58.678Z,3.08
2023-02-17T05:10:25.602Z,1.42
2023-02-17T05:12:52.653Z,1.58
2023-02-17T05:15:19.684Z,1.50
2023-02-17T05:17:47.024Z,1.70
2023-02-17T05:20:14.089Z,1.80
2023-02-17T05:22:41.138Z,1.95
2023-02-17T05:25:08.338Z,2.55
2023-02-17T05:27:35.549Z,1.67
2023-02-17T05:30:02.828Z,1.48
2023-02-17T05:32:29.985Z,2.03
2023-02-17T05:34:56.903Z,2.00
2023-02-17T05:37:23.786Z,1.63
2023-02-17T05:39:50.792Z,2.38
2023-02-17T05:42:17.795Z,3.00
2023-02-17T05:44:45.802Z,1.58
2023-02-17T05:47:12.753Z,2.22
2023-02-17T05:49:39.749Z,2.70
2023-02-17T05:52:06.740Z,2.10
2023-02-17T05:54:33.774Z,3.83
2023-02-17T05:57:00.688Z,3.35
2023-02-17T05:59:27.718Z,1.80
2023-02-17T06:01:54.695Z,2.40
2023-02-17T06:04:21.810Z,3.85
2023-02-17T06:06:48.756Z,2.08
2023-02-17T06:09:15.718Z,2.53
2023-02-17T06:11:42.618Z,2.08
2023-02-17T06:14:09.603Z,3.22
2023-02-17T06:16:36.641Z,2.78
2023-02-17T06:19:05.321Z,1.80
2023-02-17T06:21:32.723Z,2.92
2023-02-17T06:23:59.806Z,3.58
2023-02-17T06:26:26.769Z,3.20
2023-02-17T06:28:53.846Z,3.45
2023-02-17T06:31:20.939Z,3.72
2023-02-17T06:33:48.276Z,4.40
2023-02-17T06:36:15.313Z,3.13
2023-02-17T06:38:42.290Z,1.98
2023-02-17T06:41:09.356Z,2.00
2023-02-17T06:43:36.362Z,2.53
2023-02-17T06:46:03.498Z,1.80
2023-02-17T06:48:33.138Z,4.03
2023-02-17T06:51:01.218Z,3.00
2023-02-17T06:53:28.440Z,2.72
2023-02-17T06:55:56.066Z,3.92
2023-02-17T06:58:23.314Z,4.50
2023-02-17T07:00:51.603Z,2.55
2023-02-17T07:03:18.589Z,2.78
2023-02-17T07:05:45.585Z,4.22
2023-02-17T07:08:12.677Z,3.80
2023-02-17T07:10:39.634Z,3.13
2023-02-17T07:13:06.599Z,2.75
2023-02-17T07:15:35.281Z,2.90
2023-02-17T07:18:03.119Z,3.78
2023-02-17T07:20:32.041Z,3.42
2023-02-17T07:23:01.983Z,3.40
2023-02-17T07:25:29.116Z,1.85
2023-02-17T07:27:56.083Z,3.38
2023-02-17T07:30:23.108Z,3.30
2023-02-17T07:32:50.040Z,3.47
2023-02-17T07:35:17.128Z,2.30
2023-02-17T07:37:44.032Z,2.10
2023-02-17T07:40:11.469Z,3.10
2023-02-17T07:42:38.405Z,3.17
2023-02-17T07:45:06.016Z,3.50
2023-02-17T07:47:33.509Z,2.30
2023-02-17T07:50:00.516Z,1.55
2023-02-17T07:52:27.468Z,1.88
2023-02-17T07:54:54.466Z,1.80
2023-02-17T07:57:21.625Z,1.92
2023-02-17T07:59:48.552Z,2.70
2023-02-17T08:02:15.562Z,2.70
2023-02-17T08:04:42.711Z,2.55
2023-02-17T08:07:09.608Z,2.85
2023-02-17T08:09:55.182Z,1.73
2023-02-17T08:12:41.032Z,2.00
2023-02-17T08:15:10.226Z,1.75
2023-02-17T08:17:37.281Z,2.22
2023-02-17T08:20:08.697Z,2.83
2023-02-17T08:22:37.230Z,1.70
2023-02-17T08:25:06.705Z,2.17
2023-02-17T08:27:34.014Z,2.15
2023-02-17T08:30:01.248Z,1.88
2023-02-17T08:32:28.412Z,1.90
2023-02-17T08:34:56.935Z,1.33
2023-02-17T08:37:24.360Z,1.85
2023-02-17T08:39:51.469Z,1.70
2023-02-17T08:42:18.880Z,2.38
2023-02-17T08:44:46.321Z,2.00
2023-02-17T08:47:13.361Z,1.95
2023-02-17T08:49:41.154Z,3.08
2023-02-17T08:52:08.240Z,2.28
2023-02-17T08:54:35.281Z,1.92
2023-02-17T08:57:02.317Z,1.80
2023-02-17T08:59:29.407Z,1.90
2023-02-17T09:01:56.885Z,1.90
2023-02-17T09:04:24.104Z,1.60
2023-02-17T09:06:56.051Z,1.58
2023-02-17T09:09:29.207Z,1.80
2023-02-17T09:11:59.252Z,1.80
2023-02-17T09:14:27.058Z,1.50
2023-02-17T09:16:55.055Z,2.05
2023-02-17T09:19:22.395Z,1.50
2023-02-17T09:21:49.595Z,1.60
2023-02-17T09:24:18.143Z,1.40
2023-02-17T09:26:45.510Z,1.55
2023-02-17T09:29:12.580Z,1.35
2023-02-17T09:31:39.763Z,1.52
2023-02-17T09:34:06.870Z,1.30
2023-02-17T09:36:39.586Z,1.50
2023-02-17T09:39:06.955Z,1.35
2023-02-17T09:41:47.245Z,1.15
2023-02-17T09:44:22.631Z,1.35
2023-02-17T09:47:05.563Z,1.10
2023-02-17T09:49:42.143Z,1.13
2023-02-17T09:52:16.722Z,1.52
2023-02-17T09:55:04.125Z,1.25
2023-02-17T09:57:37.725Z,1.60
2023-02-17T10:00:09.751Z,1.20
2023-02-17T10:03:06.444Z,1.15
2023-02-17T10:05:42.069Z,1.30
2023-02-17T10:08:18.259Z,1.10
2023-02-17T10:10:58.898Z,1.10
2023-02-17T10:13:30.015Z,1.30
2023-02-17T10:16:03.312Z,1.00
2023-02-17T10:18:36.534Z,1.20
2023-02-17T10:21:15.636Z,0.90
2023-02-17T10:23:42.615Z,1.15
2023-02-17T10:26:34.257Z,0.90
2023-02-17T10:29:14.669Z,1.20
2023-02-17T10:31:50.734Z,1.05
2023-02-17T10:34:36.328Z,1.20
2023-02-17T10:37:15.206Z,0.98
2023-02-17T10:39:57.283Z,0.95
2023-02-17T10:42:36.023Z,1.00
2023-02-17T10:45:10.705Z,0.90
2023-02-17T10:47:40.003Z,1.20
2023-02-17T10:50:21.675Z,1.45
2023-02-17T10:52:49.791Z,1.00
2023-02-17T10:55:39.569Z,1.10
2023-02-17T10:58:17.467Z,0.88
2023-02-17T11:00:47.760Z,1.00
2023-02-17T11:03:26.705Z,1.00
2023-02-17T11:05:56.502Z,0.90
2023-02-17T11:08:39.950Z,0.88
2023-02-17T11:11:17.714Z,1.20
2023-02-17T11:13:58.825Z,0.90
2023-02-17T11:16:29.669Z,1.02
2023-02-17T11:18:57.033Z,1.02
2023-02-17T11:21:24.114Z,1.10
2023-02-17T11:24:04.920Z,1.00
2023-02-17T11:26:35.182Z,1.20
2023-02-17T11:29:21.012Z,0.85
2023-02-17T11:32:14.585Z,1.00
2023-02-17T11:34:43.980Z,1.08
2023-02-17T11:37:13.848Z,1.00
2023-02-17T11:39:55.683Z,0.93
2023-02-17T11:42:31.825Z,1.10
2023-02-17T11:45:01.198Z,0.90
2023-02-17T11:48:16.064Z,1.20
2023-02-17T11:51:08.194Z,1.30
2023-02-17T11:54:06.069Z,0.90
2023-02-17T11:56:44.090Z,1.30
2023-02-17T11:59:25.950Z,1.20
2023-02-17T12:02:05.681Z,1.00
2023-02-17T12:04:46.532Z,1.20
2023-02-17T12:07:37.111Z,1.13
2023-02-17T12:10:39.355Z,1.10
2023-02-17T12:13:34.020Z,1.27
2023-02-17T12:16:18.719Z,1.33
2023-02-17T12:18:53.108Z,1.17
2023-02-17T12:21:34.407Z,1.08
2023-02-17T12:24:13.435Z,1.20
2023-02-17T12:27:06.287Z,1.20
2023-02-17T12:30:00.651Z,1.20
2023-02-17T12:32:36.887Z,1.50
2023-02-17T12:35:26.445Z,1.30
2023-02-17T12:38:03.830Z,1.27
2023-02-17T12:41:00.102Z,1.00
2023-02-17T12:43:46.283Z,1.00
2023-02-17T12:46:38.531Z,1.10
2023-02-17T12:49:23.737Z,1.05
2023-02-17T12:52:03.931Z,1.08
2023-02-17T12:54:44.268Z,1.35
2023-02-17T12:57:14.089Z,0.88
2023-02-17T12:59:50.361Z,1.02
2023-02-17T13:02:25.719Z,1.10
2023-02-17T13:04:57.922Z,0.98
2023-02-17T13:07:50.605Z,1.05
2023-02-17T13:10:29.847Z,1.00
2023-02-17T13:13:06.352Z,0.82
2023-02-17T13:15:43.064Z,1.08
2023-02-17T13:18:15.083Z,1.20
2023-02-17T13:20:52.223Z,1.20
2023-02-17T13:23:30.604Z,1.20
2023-02-17T13:26:24.364Z,1.23
2023-02-17T13:28:53.706Z,1.20
2023-02-17T13:31:24.130Z,1.38
2023-02-17T13:33:56.715Z,1.30
2023-02-17T13:36:29.514Z,1.45
2023-02-17T13:39:03.133Z,1.00
2023-02-17T13:41:47.731Z,1.17
2023-02-17T13:44:26.271Z,1.13
2023-02-17T13:46:56.895Z,1.00
2023-02-17T13:49:27.761Z,1.20
2023-02-17T13:51:55.441Z,1.40
2023-02-17T13:54:23.309Z,1.20
2023-02-17T13:56:51.986Z,1.58
2023-02-17T13:59:27.090Z,1.02
2023-02-17T14:01:57.387Z,1.20
2023-02-17T14:04:30.624Z,1.05
2023-02-17T14:07:00.150Z,1.27
2023-02-17T14:09:30.766Z,1.10
2023-02-17T14:12:01.130Z,1.75
2023-02-17T14:14:37.690Z,1.48
2023-02-17T14:17:32.441Z,1.25
2023-02-17T14:20:00.877Z,1.40
2023-02-17T14:22:32.858Z,1.30
2023-02-17T14:25:14.270Z,1.48
2023-02-17T14:27:46.992Z,1.40
2023-02-17T14:30:35.573Z,1.65
2023-02-17T14:33:22.492Z,1.10
2023-02-17T14:35:55.626Z,1.40
2023-02-17T14:38:25.422Z,1.33
2023-02-17T14:41:01.808Z,1.33
2023-02-17T14:43:28.870Z,1.30
2023-02-17T14:45:56.152Z,1.17
2023-02-17T14:48:23.122Z,1.30
2023-02-17T14:50:50.211Z,1.23
2023-02-17T14:53:32.730Z,1.15
2023-02-17T14:56:24.179Z,1.42
2023-02-17T14:58:53.113Z,1.30
2023-02-17T15:01:22.714Z,1.48
2023-02-17T15:03:49.820Z,1.23
2023-02-17T15:06:28.010Z,1.70
2023-02-17T15:08:56.667Z,1.75
2023-02-17T15:11:34.445Z,1.42
2023-02-17T15:14:02.924Z,1.40
2023-02-17T15:16:30.853Z,1.85
2023-02-17T15:18:58.174Z,2.42
2023-02-17T15:21:31.156Z,1.67
2023-02-17T15:23:59.946Z,1.38
2023-02-17T15:26:27.978Z,1.75
2023-02-17T15:28:57.109Z,1.70
2023-02-17T15:31:33.984Z,1.80
2023-02-17T15:34:02.420Z,2.13
2023-02-17T15:36:32.854Z,1.77
2023-02-17T15:38:59.996Z,1.60
2023-02-17T15:41:30.603Z,1.95
2023-02-17T15:43:58.615Z,1.70
2023-02-17T15:46:31.122Z,2.20
2023-02-17T15:48:58.488Z,1.83
2023-02-17T15:51:25.624Z,2.40
2023-02-17T15:53:52.640Z,1.80
2023-02-17T15:56:23.364Z,2.28
2023-02-17T15:58:51.227Z,2.80
2023-02-17T16:01:29.786Z,2.10
2023-02-17T16:03:58.112Z,1.70
2023-02-17T16:06:26.493Z,1.60
2023-02-17T16:08:54.338Z,1.48
2023-02-17T16:11:22.516Z,1.55
2023-02-17T16:13:50.126Z,1.58
2023-02-17T16:16:23.793Z,1.63
2023-02-17T16:18:51.524Z,1.92
2023-02-17T16:21:18.724Z,1.60
2023-02-17T16:23:46.104Z,1.30
2023-02-17T16:26:32.364Z,1.67
2023-02-17T16:29:02.542Z,1.55
2023-02-17T16:31:32.429Z,1.73
2023-02-17T16:34:00.429Z,1.45
2023-02-17T16:36:31.182Z,1.48
2023-02-17T16:39:00.389Z,1.60
2023-02-17T16:41:27.281Z,1.65
2023-02-17T16:43:54.210Z,1.85
2023-02-17T16:46:29.770Z,1.80
2023-02-17T16:49:01.879Z,1.90
2023-02-17T16:51:29.192Z,1.83
2023-02-17T16:53:56.436Z,1.90
2023-02-17T16:56:32.819Z,1.80
2023-02-17T16:59:00.011Z,1.50
2023-02-17T17:01:27.246Z,1.27
2023-02-17T17:03:55.379Z,1.75
2023-02-17T17:06:25.484Z,1.65
2023-02-17T17:08:53.231Z,1.38
2023-02-17T17:11:23.437Z,1.35
2023-02-17T17:13:51.357Z,1.95
2023-02-17T17:16:25.949Z,1.60
2023-02-17T17:18:53.350Z,1.58
2023-02-17T17:21:20.531Z,1.67
2023-02-17T17:23:47.671Z,1.70
2023-02-17T17:26:36.620Z,1.85
2023-02-17T17:29:03.853Z,1.60
2023-02-17T17:31:30.867Z,1.50
2023-02-17T17:33:58.085Z,1.33
2023-02-17T17:36:35.351Z,2.00
2023-02-17T17:39:04.526Z,1.98
2023-02-17T17:41:31.529Z,1.98
2023-02-17T17:43:59.065Z,2.58
2023-02-17T17:46:31.478Z,2.40
2023-02-17T17:48:59.844Z,1.83
2023-02-17T17:51:29.213Z,1.80
2023-02-17T17:53:57.019Z,2.47
2023-02-17T17:56:27.528Z,2.00
2023-02-17T17:58:55.115Z,2.50
2023-02-17T18:01:24.548Z,2.70
2023-02-17T18:03:51.783Z,2.00
2023-02-17T18:06:37.435Z,1.92
2023-02-17T18:09:07.193Z,1.42
2023-02-17T18:11:37.012Z,2.15
2023-02-17T18:14:11.460Z,2.70
2023-02-17T18:16:41.901Z,2.00
2023-02-17T18:19:08.935Z,2.17
2023-02-17T18:21:36.317Z,1.90
2023-02-17T18:24:04.081Z,1.65
2023-02-17T18:26:31.241Z,1.30
2023-02-17T18:28:58.750Z,1.80
2023-02-17T18:31:28.062Z,2.08
2023-02-17T18:33:56.205Z,2.00
2023-02-17T18:36:26.128Z,2.20
2023-02-17T18:38:53.169Z,1.80
2023-02-17T18:41:29.332Z,2.10
2023-02-17T18:43:58.142Z,1.60
2023-02-17T18:46:26.963Z,2.38
2023-02-17T18:48:55.383Z,1.60
2023-02-17T18:51:23.850Z,1.58
2023-02-17T18:53:51.306Z,1.50
2023-02-17T18:56:21.607Z,2.13
2023-02-17T18:58:50.671Z,1.90
2023-02-17T19:01:24.199Z,2.17
2023-02-17T19:03:52.061Z,1.52
2023-02-17T19:06:22.387Z,2.03
2023-02-17T19:08:49.924Z,1.73
2023-02-17T19:11:18.850Z,2.70
2023-02-17T19:13:46.257Z,2.25
2023-02-17T19:16:28.447Z,1.23
2023-02-17T19:18:56.245Z,2.38
2023-02-17T19:21:23.814Z,2.90
2023-02-17T19:23:51.859Z,4.25
2023-02-17T19:26:22.944Z,2.13
2023-02-17T19:28:50.322Z,1.90
2023-02-17T19:31:19.598Z,3.42
2023-02-17T19:33:47.573Z,3.88
2023-02-17T19:36:17.756Z,3.00
2023-02-17T19:38:45.920Z,3.03
2023-02-17T19:41:13.896Z,2.97
2023-02-17T19:43:41.881Z,5.25
2023-02-17T19:46:12.736Z,4.22
2023-02-17T19:48:40.553Z,4.22
2023-02-17T19:51:09.062Z,4.75
2023-02-17T19:53:36.525Z,3.55
2023-02-17T19:56:13.216Z,4.03
2023-02-17T19:58:42.156Z,2.80
2023-02-17T20:01:13.094Z,3.70
2023-02-17T20:03:40.360Z,5.03
2023-02-17T20:06:13.039Z,3.72
2023-02-17T20:08:40.343Z,2.83
2023-02-17T20:11:08.709Z,4.70
2023-02-17T20:13:45.824Z,4.53
2023-02-17T20:16:16.022Z,3.30
2023-02-17T20:18:46.326Z,3.85
2023-02-17T20:21:26.159Z,3.00
2023-02-17T20:23:53.294Z,3.97
2023-02-17T20:26:29.196Z,4.00
2023-02-17T20:28:57.142Z,2.15
2023-02-17T20:31:25.276Z,2.63
2023-02-17T20:33:52.899Z,3.60
2023-02-17T20:36:22.165Z,4.60
2023-02-17T20:38:50.431Z,4.50
2023-02-17T20:41:20.235Z,4.80
2023-02-17T20:43:47.450Z,4.20
2023-02-17T20:46:23.180Z,3.60
2023-02-17T20:48:50.362Z,2.72
2023-02-17T20:51:17.437Z,3.97
2023-02-17T20:53:44.377Z,2.65
2023-02-17T20:56:17.032Z,5.18
2023-02-17T20:58:44.705Z,3.83
2023-02-17T21:01:11.735Z,3.55
2023-02-17T21:03:39.174Z,4.13
2023-02-17T21:06:17.691Z,4.53
2023-02-17T21:08:45.665Z,2.60
2023-02-17T21:11:12.878Z,5.22
2023-02-17T21:13:40.034Z,5.10
2023-02-17T21:16:07.406Z,4.45
2023-02-17T21:18:35.984Z,4.70
2023-02-17T21:21:03.224Z,4.70
2023-02-17T21:23:30.278Z,4.60
2023-02-17T21:25:57.223Z,4.55
2023-02-17T21:28:24.197Z,5.28
2023-02-17T21:30:51.226Z,5.78
2023-02-17T21:33:18.449Z,3.45
2023-02-17T21:35:45.389Z,5.63
2023-02-17T21:38:12.384Z,3.30
2023-02-17T21:40:39.303Z,3.50
2023-02-17T21:43:25.024Z,2.90
2023-02-17T21:45:52.438Z,6.13
2023-02-17T21:48:19.459Z,4.32
2023-02-17T21:50:46.436Z,4.70
2023-02-17T21:53:13.556Z,6.20
2023-02-17T21:55:40.902Z,5.90
2023-02-17T21:58:07.976Z,4.07
2023-02-17T22:00:35.001Z,5.40
2023-02-17T22:03:02.148Z,5.55
2023-02-17T22:05:32.416Z,4.65
2023-02-17T22:07:59.422Z,5.20
2023-02-17T22:10:26.347Z,4.47
2023-02-17T22:12:53.313Z,5.25
2023-02-17T22:15:20.253Z,5.28
2023-02-17T22:17:48.028Z,3.00
2023-02-17T22:20:15.520Z,5.25
2023-02-17T22:22:42.499Z,4.63
2023-02-17T22:25:09.480Z,3.53
2023-02-17T22:27:36.466Z,5.57
2023-02-17T22:30:05.082Z,5.82
2023-02-17T22:32:32.269Z,5.60
2023-02-17T22:34:59.267Z,4.25
2023-02-17T22:37:26.302Z,3.10
2023-02-17T22:39:56.712Z,5.00
2023-02-17T22:42:24.472Z,5.25
2023-02-17T22:44:51.607Z,3.92
2023-02-17T22:47:18.550Z,6.43
2023-02-17T22:49:45.513Z,5.93
2023-02-17T22:52:12.695Z,4.05
2023-02-17T22:54:40.989Z,4.10
2023-02-17T22:57:08.344Z,4.15
2023-02-17T22:59:35.525Z,4.47
2023-02-17T23:02:02.460Z,5.65
2023-02-17T23:04:30.170Z,6.28
2023-02-17T23:06:57.290Z,4.80
2023-02-17T23:09:33.671Z,3.90
2023-02-17T23:12:00.803Z,4.18
2023-02-17T23:14:28.912Z,4.80
2023-02-17T23:17:00.769Z,4.13
2023-02-17T23:19:28.796Z,5.45
2023-02-17T23:21:59.146Z,6.50
2023-02-17T23:24:26.930Z,2.72
2023-02-17T23:26:56.353Z,4.25
2023-02-17T23:29:23.823Z,5.38
2023-02-17T23:31:51.224Z,4.45
2023-02-17T23:34:18.386Z,3.08
2023-02-17T23:36:46.327Z,5.18
2023-02-17T23:39:15.562Z,5.25
2023-02-17T23:41:43.019Z,5.03
2023-02-17T23:44:11.628Z,4.57
2023-02-17T23:46:40.032Z,3.33
2023-02-17T23:49:07.035Z,5.05
2023-02-17T23:51:34.167Z,2.78
2023-02-17T23:54:01.181Z,2.38
2023-02-17T23:56:35.614Z,2.85
2023-02-17T23:59:03.335Z,2.53
